Time;durP1;ratioP1;P1;durP2;ratioP2;P2;SDS_P1;SDS_P2;PMS_P1;PMS_P2;Temp;Humidity;BMP_temperature;BMP_pressure;BME280_temperature;BME280_humidity;BME280_pressure;Samples;Min_cycle;Max_cycle;Signal;HPM_P1;HPM_P2
2022/10/20 00:01:54;;;;;;;;;;;;;;;7.08;100.00;102024.56;4983617;28;19934;-72
2022/10/20 00:04:19;;;;;;;;;;;;;;;7.06;100.00;102023.72;4985973;28;19936;-72
2022/10/20 00:06:45;;;;;;;;;;;;;;;7.04;100.00;102017.59;4966340;28;19930;-72
2022/10/20 00:09:10;;;;;;;;;;;;;;;7.02;100.00;102014.09;4955175;28;19921;-73
2022/10/20 00:11:36;;;;;;;;;;;;;;;7.00;100.00;102015.88;4986695;28;20001;-72
2022/10/20 00:14:01;;;;;;;;;;;;;;;6.99;100.00;102019.41;4967594;28;20011;-72
2022/10/20 00:16:27;;;;;;;;;;;;;;;6.97;100.00;102013.28;4984321;28;20372;-73
2022/10/20 00:18:55;;;;;;;;;;;;;;;6.97;100.00;102008.88;4945444;28;20212;-73
2022/10/20 00:21:21;;;;;;;;;;;;;;;6.97;100.00;102000.97;4981093;28;19940;-73
2022/10/20 00:23:46;;;;;;;;;;;;;;;6.96;100.00;101993.13;4947307;28;19973;-73
2022/10/20 00:26:16;;;;;;;;;;;;;;;6.93;100.00;101992.25;4943697;28;19930;-72
2022/10/20 00:28:42;;;;;;;;;;;;;;;6.92;100.00;101989.66;4965861;28;20411;-73
2022/10/20 00:31:07;;;;;;;;;;;;;;;6.91;100.00;101985.25;4967430;28;19925;-73
2022/10/20 00:33:33;;;;;;;;;;;;;;;6.90;100.00;101984.41;4966067;28;19936;-72
2022/10/20 00:35:59;;;;;;;;;;;;;;;6.87;100.00;101986.19;4965685;28;19952;-72
2022/10/20 00:38:25;;;;;;;;;;;;;;;6.85;100.00;101988.84;4967850;28;19934;-72
2022/10/20 00:40:50;;;;;;;;;;;;;;;6.82;100.00;101983.63;4967340;28;19930;-72
2022/10/20 00:43:16;;;;;;;;;;;;;;;6.81;100.00;101983.63;4967114;28;20448;-72
2022/10/20 00:45:41;;;;;;;;;;;;;;;6.77;100.00;101975.75;4934102;28;19965;-73
2022/10/20 00:48:10;;;;;;;;;;;;;;;6.75;100.00;101966.16;4946282;28;19930;-73
2022/10/20 00:50:40;;;;;;;;;;;;;;;6.73;100.00;101960.03;4935734;28;19936;-73
2022/10/20 00:53:05;;;;;;;;;;;;;;;6.70;100.00;101955.66;4932101;28;20021;-73
2022/10/20 00:55:31;;;;;;;;;;;;;;;6.67;100.00;101953.06;4952115;28;19925;-72
2022/10/20 00:57:57;;;;;;;;;;;;;;;6.65;100.00;101950.44;4947733;28;20228;-72
2022/10/20 01:00:23;;;;;;;;;;;;;;;6.64;100.00;101948.72;4952310;28;19961;-73
2022/10/20 01:02:49;;;;;;;;;;;;;;;6.63;100.00;101940.84;4941910;28;20052;-72
2022/10/20 01:05:15;;;;;;;;;;;;;;;6.63;100.00;101952.25;4966387;28;20405;-72
2022/10/20 01:07:40;;;;;;;;;;;;;;;6.63;100.00;101952.25;4932057;28;19933;-72
2022/10/20 01:10:06;;;;;;;;;;;;;;;6.62;100.00;101955.75;4969308;28;19937;-72
2022/10/20 01:12:36;;;;;;;;;;;;;;;6.61;100.00;101945.25;4947793;28;19930;-72
2022/10/20 01:15:03;;;;;;;;;;;;;;;6.59;100.00;101954.94;4967538;28;20004;-73
2022/10/20 01:17:29;;;;;;;;;;;;;;;6.57;100.00;101952.31;4934665;28;19926;-72
2022/10/20 01:20:13;;;;;;;;;;;;;;;6.56;100.00;101945.31;4951300;28;20250;-72
2022/10/20 01:22:58;;;;;;;;;;;;;;;6.56;100.00;101934.78;4965485;28;21469;-72
2022/10/20 01:25:35;;;;;;;;;;;;;;;6.54;100.00;101938.31;4968582;28;19934;-72
2022/10/20 01:28:01;;;;;;;;;;;;;;;6.51;100.00;101929.56;4949255;28;20627;-72
2022/10/20 01:30:27;;;;;;;;;;;;;;;6.50;100.00;101924.31;4947811;28;20368;-75
2022/10/20 01:33:15;;;;;;;;;;;;;;;6.48;100.00;101920.84;4948927;28;19926;-75
2022/10/20 01:35:43;;;;;;;;;;;;;;;6.45;100.00;101910.34;4946268;28;20197;-75
2022/10/20 01:38:11;;;;;;;;;;;;;;;6.44;100.00;101912.13;4967118;28;19933;-75
2022/10/20 01:40:41;;;;;;;;;;;;;;;6.42;100.00;101903.34;4948004;28;19956;-72
2022/10/20 01:43:07;;;;;;;;;;;;;;;6.41;100.00;101893.72;4947760;28;19936;-73
2022/10/20 01:45:33;;;;;;;;;;;;;;;6.39;100.00;101887.59;4945925;28;20020;-75
2022/10/20 01:47:59;;;;;;;;;;;;;;;6.37;100.00;101887.63;4967075;28;20473;-73
2022/10/20 01:50:24;;;;;;;;;;;;;;;6.35;100.00;101878.88;4966494;28;20061;-75
2022/10/20 01:52:53;;;;;;;;;;;;;;;6.31;100.00;101871.91;4947719;28;20400;-72
2022/10/20 01:55:19;;;;;;;;;;;;;;;6.31;100.00;101876.31;4936235;28;19930;-72
2022/10/20 01:57:48;;;;;;;;;;;;;;;6.29;100.00;101873.69;4967465;28;19980;-72
2022/10/20 02:00:14;;;;;;;;;;;;;;;6.29;100.00;101880.69;4947209;28;19999;-75
2022/10/20 02:03:06;;;;;;;;;;;;;;;6.28;100.00;101879.84;4947065;28;19930;-72
2022/10/20 02:05:40;;;;;;;;;;;;;;;6.29;100.00;101871.06;4930143;28;19926;-73
2022/10/20 02:08:11;;;;;;;;;;;;;;;6.29;100.00;101863.16;4965664;28;20484;-73
2022/10/20 02:10:44;;;;;;;;;;;;;;;6.29;100.00;101851.75;4946142;28;20028;-72
2022/10/20 02:13:10;;;;;;;;;;;;;;;6.27;100.00;101843.03;4966320;28;19960;-74
2022/10/20 02:15:36;;;;;;;;;;;;;;;6.25;100.00;101840.41;4932650;28;19930;-74
2022/10/20 02:18:02;;;;;;;;;;;;;;;6.23;100.00;101832.53;4944959;28;19952;-74
2022/10/20 02:20:28;;;;;;;;;;;;;;;6.22;100.00;101827.31;4951391;28;19995;-74
2022/10/20 02:22:54;;;;;;;;;;;;;;;6.22;100.00;101819.41;4943365;28;20183;-74
2022/10/20 02:25:19;;;;;;;;;;;;;;;6.20;100.00;101822.06;4964290;28;20021;-74
2022/10/20 02:27:45;;;;;;;;;;;;;;;6.17;100.00;101827.38;4959175;28;20075;-74
2022/10/20 02:30:11;;;;;;;;;;;;;;;6.17;100.00;101842.25;4963435;28;19930;-74
2022/10/20 02:32:38;;;;;;;;;;;;;;;6.16;100.00;101844.00;4951664;28;19975;-73
2022/10/20 02:35:08;;;;;;;;;;;;;;;6.16;100.00;101840.53;4962738;28;19972;-74
2022/10/20 02:37:34;;;;;;;;;;;;;;;6.14;100.00;101839.69;4966862;28;19934;-74
2022/10/20 02:40:00;;;;;;;;;;;;;;;6.14;100.00;101821.28;4966377;28;19980;-74
2022/10/20 02:42:25;;;;;;;;;;;;;;;6.11;100.00;101809.88;4966366;28;20200;-74
2022/10/20 02:44:50;;;;;;;;;;;;;;;6.11;100.00;101809.03;4965191;28;19929;-74
2022/10/20 02:47:16;;;;;;;;;;;;;;;6.11;100.00;101801.13;4967558;28;19937;-74
2022/10/20 02:49:42;;;;;;;;;;;;;;;6.10;100.00;101795.00;4966552;28;19934;-74
2022/10/20 02:52:07;;;;;;;;;;;;;;;6.07;100.00;101787.16;4967952;28;20003;-73
2022/10/20 02:54:33;;;;;;;;;;;;;;;6.07;100.00;101788.91;4959706;28;20356;-74
2022/10/20 02:56:58;;;;;;;;;;;;;;;6.05;100.00;101780.16;4967648;28;20048;-74
2022/10/20 02:59:24;;;;;;;;;;;;;;;6.05;100.00;101781.03;4966531;28;19925;-74
2022/10/20 03:01:51;;;;;;;;;;;;;;;6.07;100.00;101778.38;4967147;28;20052;-74
2022/10/20 03:04:16;;;;;;;;;;;;;;;6.07;100.00;101765.25;4967765;28;20024;-74
2022/10/20 03:06:42;;;;;;;;;;;;;;;6.05;100.00;101759.13;4934086;28;19930;-74
2022/10/20 03:09:07;;;;;;;;;;;;;;;6.03;100.00;101753.88;4965783;28;19929;-74
2022/10/20 03:11:33;;;;;;;;;;;;;;;6.01;100.00;101750.38;4962048;28;20304;-74
2022/10/20 03:13:58;;;;;;;;;;;;;;;5.99;100.00;101733.75;4959848;28;19973;-74
2022/10/20 03:16:23;;;;;;;;;;;;;;;5.96;100.00;101724.16;4965562;28;19929;-73
2022/10/20 03:18:49;;;;;;;;;;;;;;;5.94;100.00;101719.81;4966423;28;19933;-74
2022/10/20 03:21:15;;;;;;;;;;;;;;;5.93;100.00;101728.56;4961148;28;19944;-73
2022/10/20 03:23:40;;;;;;;;;;;;;;;5.90;100.00;101728.59;4982242;28;19940;-73
2022/10/20 03:26:06;;;;;;;;;;;;;;;5.87;100.00;101720.75;4983997;28;19925;-74
2022/10/20 03:28:32;;;;;;;;;;;;;;;5.87;100.00;101712.88;4984575;28;19929;-73
2022/10/20 03:30:57;;;;;;;;;;;;;;;5.84;100.00;101696.25;4985446;28;19960;-74
2022/10/20 03:33:23;;;;;;;;;;;;;;;5.82;100.00;101700.66;4964771;28;20048;-73
2022/10/20 03:35:48;;;;;;;;;;;;;;;5.80;100.00;101691.03;4983539;28;20023;-74
2022/10/20 03:38:14;;;;;;;;;;;;;;;5.79;100.00;101698.06;4983162;28;20024;-74
2022/10/20 03:40:39;;;;;;;;;;;;;;;5.79;100.00;101684.06;4955962;28;19925;-74
2022/10/20 03:43:05;;;;;;;;;;;;;;;5.77;100.00;101689.31;4966509;28;19921;-74
2022/10/20 03:45:30;;;;;;;;;;;;;;;5.78;100.00;101693.69;4987705;28;19932;-73
2022/10/20 03:47:56;;;;;;;;;;;;;;;5.78;100.00;101683.16;4966658;28;19925;-73
2022/10/20 03:50:21;;;;;;;;;;;;;;;5.80;100.00;101676.16;4966199;28;19929;-73
2022/10/20 03:52:47;;;;;;;;;;;;;;;5.79;100.00;101677.06;4966299;28;19933;-74
2022/10/20 03:55:12;;;;;;;;;;;;;;;5.80;100.00;101665.66;4969562;28;20492;-74
2022/10/20 03:57:38;;;;;;;;;;;;;;;5.81;100.00;101666.50;4987469;28;19929;-73
2022/10/20 04:00:03;;;;;;;;;;;;;;;5.78;100.00;101662.16;4970126;28;19930;-73
2022/10/20 04:02:36;;;;;;;;;;;;;;;5.78;100.00;101672.66;4991739;28;21551;-73
2022/10/20 04:05:02;;;;;;;;;;;;;;;5.81;100.00;101667.38;4991347;28;19930;-74
2022/10/20 04:07:28;;;;;;;;;;;;;;;5.81;100.00;101670.00;4970137;28;20381;-74
2022/10/20 04:09:54;;;;;;;;;;;;;;;5.81;100.00;101662.13;4990895;28;19982;-73
2022/10/20 04:12:20;;;;;;;;;;;;;;;5.82;100.00;101655.97;4990993;28;19936;-73
2022/10/20 04:14:46;;;;;;;;;;;;;;;5.83;100.00;101659.50;4941580;28;20300;-74
2022/10/20 04:17:11;;;;;;;;;;;;;;;5.83;100.00;101657.72;4968797;28;20312;-73
2022/10/20 04:19:37;;;;;;;;;;;;;;;5.83;100.00;101660.34;4990543;28;20040;-73
2022/10/20 04:22:02;;;;;;;;;;;;;;;5.83;100.00;101652.44;4990462;28;20041;-74
2022/10/20 04:24:27;;;;;;;;;;;;;;;5.83;100.00;101647.19;4990805;28;20028;-73
2022/10/20 04:26:53;;;;;;;;;;;;;;;5.85;100.00;101641.94;4991277;28;20300;-73
2022/10/20 04:29:19;;;;;;;;;;;;;;;5.84;100.00;101648.94;4969803;28;19930;-73
2022/10/20 04:31:44;;;;;;;;;;;;;;;5.84;100.00;101646.31;4964883;28;20119;-73
2022/10/20 04:34:10;;;;;;;;;;;;;;;5.84;100.00;101650.72;4987264;28;19930;-74
2022/10/20 04:36:35;;;;;;;;;;;;;;;5.83;100.00;101641.09;4985650;28;19937;-73
2022/10/20 04:39:01;;;;;;;;;;;;;;;5.81;100.00;101633.22;4988219;28;20016;-74
2022/10/20 04:41:27;;;;;;;;;;;;;;;5.80;100.00;101628.84;4968988;28;20027;-73
2022/10/20 04:43:52;;;;;;;;;;;;;;;5.78;100.00;101625.34;4952504;28;20016;-74
2022/10/20 04:46:18;;;;;;;;;;;;;;;5.80;100.00;101613.09;4965582;28;19937;-73
2022/10/20 04:48:43;;;;;;;;;;;;;;;5.80;100.00;101605.19;4970619;28;19933;-74
2022/10/20 04:51:10;;;;;;;;;;;;;;;5.80;100.00;101597.31;4952456;28;20410;-73
2022/10/20 04:53:35;;;;;;;;;;;;;;;5.80;100.00;101594.69;4967642;28;19933;-74
2022/10/20 04:56:01;;;;;;;;;;;;;;;5.81;100.00;101590.28;4989412;28;20836;-74
2022/10/20 04:58:26;;;;;;;;;;;;;;;5.80;100.00;101586.81;4967505;28;19929;-73
2022/10/20 05:00:51;;;;;;;;;;;;;;;5.82;100.00;101579.75;4968259;28;20475;-74
2022/10/20 05:03:20;;;;;;;;;;;;;;;5.80;100.00;101576.28;4985865;28;19930;-73
2022/10/20 05:05:46;;;;;;;;;;;;;;;5.80;100.00;101567.53;4967597;28;19926;-73
2022/10/20 05:08:11;;;;;;;;;;;;;;;5.78;100.00;101574.56;4967118;28;20732;-73
2022/10/20 05:10:36;;;;;;;;;;;;;;;5.78;100.00;101562.28;4970175;28;19963;-74
2022/10/20 05:13:02;;;;;;;;;;;;;;;5.76;100.00;101550.94;4971595;28;19929;-73
2022/10/20 05:15:27;;;;;;;;;;;;;;;5.78;100.00;101548.31;4967493;28;19930;-73
2022/10/20 05:17:53;;;;;;;;;;;;;;;5.77;100.00;101539.53;4953899;28;19985;-73
2022/10/20 05:20:18;;;;;;;;;;;;;;;5.77;100.00;101522.91;4985836;28;19941;-73
2022/10/20 05:22:43;;;;;;;;;;;;;;;5.75;100.00;101517.66;4963578;28;19962;-73
2022/10/20 05:25:09;;;;;;;;;;;;;;;5.73;100.00;101527.34;4966954;28;19934;-73
2022/10/20 05:27:34;;;;;;;;;;;;;;;5.72;100.00;101528.22;4963483;28;21536;-74
2022/10/20 05:30:01;;;;;;;;;;;;;;;5.73;100.00;101523.84;4968196;28;19930;-73
2022/10/20 05:32:27;;;;;;;;;;;;;;;5.72;100.00;101515.06;4966931;28;21425;-73
2022/10/20 05:34:53;;;;;;;;;;;;;;;5.73;100.00;101505.44;4968300;28;20095;-73
2022/10/20 05:37:18;;;;;;;;;;;;;;;5.72;100.00;101499.31;4967928;28;19932;-73
2022/10/20 05:39:43;;;;;;;;;;;;;;;5.73;100.00;101506.31;4967317;28;20345;-73
2022/10/20 05:42:09;;;;;;;;;;;;;;;5.72;100.00;101501.94;4968285;28;19981;-73
2022/10/20 05:44:34;;;;;;;;;;;;;;;5.71;100.00;101502.84;4968393;28;19930;-73
2022/10/20 05:46:59;;;;;;;;;;;;;;;5.72;100.00;101509.81;4966846;28;20464;-73
2022/10/20 05:49:25;;;;;;;;;;;;;;;5.73;100.00;101506.31;4968990;28;19930;-73
2022/10/20 05:51:50;;;;;;;;;;;;;;;5.74;100.00;101502.81;4984022;28;19933;-73
2022/10/20 05:54:16;;;;;;;;;;;;;;;5.75;100.00;101493.16;4968425;28;19929;-73
2022/10/20 05:56:42;;;;;;;;;;;;;;;5.76;100.00;101490.50;4947674;28;20403;-73
2022/10/20 05:59:07;;;;;;;;;;;;;;;5.76;100.00;101489.63;4960752;28;19930;-73
2022/10/20 06:01:46;;;;;;;;;;;;;;;5.77;100.00;101486.97;4964975;28;20016;-73
2022/10/20 06:04:11;;;;;;;;;;;;;;;5.77;100.00;101494.88;4965857;28;19933;-73
2022/10/20 06:06:37;;;;;;;;;;;;;;;5.79;100.00;101487.84;4965695;28;20344;-74
2022/10/20 06:09:03;;;;;;;;;;;;;;;5.82;100.00;101487.78;4964733;28;19934;-74
2022/10/20 06:11:29;;;;;;;;;;;;;;;5.83;100.00;101486.88;4968834;28;19930;-73
2022/10/20 06:13:55;;;;;;;;;;;;;;;5.85;100.00;101498.22;4969116;28;19929;-74
2022/10/20 06:16:21;;;;;;;;;;;;;;;5.85;100.00;101500.00;4982588;28;19940;-73
2022/10/20 06:18:46;;;;;;;;;;;;;;;5.85;100.00;101500.00;4982176;28;19949;-73
2022/10/20 06:21:13;;;;;;;;;;;;;;;5.85;100.00;101495.59;4966483;28;19925;-74
2022/10/20 06:23:38;;;;;;;;;;;;;;;5.85;100.00;101490.34;4961366;28;19972;-73
2022/10/20 06:26:05;;;;;;;;;;;;;;;5.86;100.00;101480.72;4965063;28;19930;-74
2022/10/20 06:28:31;;;;;;;;;;;;;;;5.86;100.00;101472.84;4965348;28;19925;-74
2022/10/20 06:30:56;;;;;;;;;;;;;;;5.88;100.00;101454.41;4962983;28;19929;-74
2022/10/20 06:33:22;;;;;;;;;;;;;;;5.90;100.00;101455.25;4967628;28;20102;-73
2022/10/20 06:35:47;;;;;;;;;;;;;;;5.93;100.00;101457.81;4968949;28;19953;-75
2022/10/20 06:38:13;;;;;;;;;;;;;;;5.94;100.00;101462.22;4968390;28;20166;-74
2022/10/20 06:40:38;;;;;;;;;;;;;;;5.94;100.00;101472.72;4962258;28;19953;-74
2022/10/20 06:43:04;;;;;;;;;;;;;;;5.97;100.00;101477.91;4965577;28;20513;-75
2022/10/20 06:45:29;;;;;;;;;;;;;;;5.99;100.00;101465.59;4950157;28;20011;-74
2022/10/20 06:47:54;;;;;;;;;;;;;;;6.01;100.00;101468.22;4966209;28;20364;-74
2022/10/20 06:50:20;;;;;;;;;;;;;;;6.02;100.00;101465.59;4967566;28;20457;-74
2022/10/20 06:52:45;;;;;;;;;;;;;;;6.02;100.00;101468.25;4943738;28;19952;-74
2022/10/20 06:55:11;;;;;;;;;;;;;;;6.04;100.00;101474.31;4953189;28;20150;-74
2022/10/20 06:57:36;;;;;;;;;;;;;;;6.05;100.00;101475.22;4969229;28;20569;-74
2022/10/20 07:00:03;;;;;;;;;;;;;;;6.06;100.00;101477.78;4966836;28;20425;-74
2022/10/20 07:02:28;;;;;;;;;;;;;;;6.07;100.00;101471.66;4963199;28;19929;-74
2022/10/20 07:04:54;;;;;;;;;;;;;;;6.10;100.00;101474.22;4968459;28;20468;-75
2022/10/20 07:07:19;;;;;;;;;;;;;;;6.13;100.00;101467.19;4967462;28;19940;-74
2022/10/20 07:09:45;;;;;;;;;;;;;;;6.12;100.00;101455.81;4966595;28;19934;-74
2022/10/20 07:12:10;;;;;;;;;;;;;;;6.14;100.00;101448.75;4969174;28;20376;-75
2022/10/20 07:14:36;;;;;;;;;;;;;;;6.16;100.00;101454.00;4966502;28;20463;-75
2022/10/20 07:17:02;;;;;;;;;;;;;;;6.17;100.00;101453.09;4965074;28;19948;-75
2022/10/20 07:19:27;;;;;;;;;;;;;;;6.18;100.00;101460.09;4967260;28;20257;-74
2022/10/20 07:21:53;;;;;;;;;;;;;;;6.21;100.00;101467.94;4964869;28;20024;-82
2022/10/20 07:24:18;;;;;;;;;;;;;;;6.23;100.00;101472.25;4967783;28;19973;-75
2022/10/20 07:26:44;;;;;;;;;;;;;;;6.28;100.00;101458.16;4965648;28;19930;-74
2022/10/20 07:29:09;;;;;;;;;;;;;;;6.28;100.00;101460.78;4968323;28;19925;-74
2022/10/20 07:31:36;;;;;;;;;;;;;;;6.28;100.00;101466.06;4966474;28;19925;-74
2022/10/20 07:34:02;;;;;;;;;;;;;;;6.30;100.00;101440.59;4949768;28;19933;-74
2022/10/20 07:36:28;;;;;;;;;;;;;;;6.35;100.00;101444.00;4966634;28;19934;-76
2022/10/20 07:38:55;;;;;;;;;;;;;;;6.38;100.00;101431.66;4951453;28;20531;-76
2022/10/20 07:41:20;;;;;;;;;;;;;;;6.41;100.00;101437.75;4971397;28;19972;-76
2022/10/20 07:43:46;;;;;;;;;;;;;;;6.44;100.00;101446.50;4951986;28;19984;-76
2022/10/20 07:46:11;;;;;;;;;;;;;;;6.47;100.00;101449.06;4971067;28;20024;-76
2022/10/20 07:48:37;;;;;;;;;;;;;;;6.51;100.00;101445.47;4965188;28;19937;-74
2022/10/20 07:51:16;;;;;;;;;;;;;;;6.54;100.00;101443.69;4971959;28;20360;-74
2022/10/20 07:53:42;;;;;;;;;;;;;;;6.57;100.00;101433.06;4967639;28;19972;-74
2022/10/20 07:56:07;;;;;;;;;;;;;;;6.60;100.00;101433.88;4971247;28;20012;-73
2022/10/20 07:58:33;;;;;;;;;;;;;;;6.63;100.00;101431.22;4968532;28;19936;-74
2022/10/20 08:00:58;;;;;;;;;;;;;;;6.66;100.00;101430.28;4972960;28;19933;-74
2022/10/20 08:03:24;;;;;;;;;;;;;;;6.69;100.00;101418.84;4971846;28;19980;-73
2022/10/20 08:05:49;;;;;;;;;;;;;;;6.74;100.00;101411.69;4970512;28;19933;-74
2022/10/20 08:08:14;;;;;;;;;;;;;;;6.76;100.00;101410.78;4971346;28;19980;-73
2022/10/20 08:10:40;;;;;;;;;;;;;;;6.79;100.00;101405.47;4970421;28;20469;-73
2022/10/20 08:13:05;;;;;;;;;;;;;;;6.84;100.00;101402.72;4966358;28;20012;-74
2022/10/20 08:15:31;;;;;;;;;;;;;;;6.86;100.00;101395.66;4967066;28;20009;-75
2022/10/20 08:17:56;;;;;;;;;;;;;;;6.91;100.00;101393.81;4968788;28;19930;-74
2022/10/20 08:20:22;;;;;;;;;;;;;;;6.96;100.00;101395.47;4970535;28;19933;-74
2022/10/20 08:22:47;;;;;;;;;;;;;;;7.00;100.00;101386.59;4957102;28;20020;-74
2022/10/20 08:25:13;;;;;;;;;;;;;;;7.05;100.00;101380.34;4967631;28;19936;-74
2022/10/20 08:27:39;;;;;;;;;;;;;;;7.12;100.00;101375.81;4967434;28;19937;-74
2022/10/20 08:30:04;;;;;;;;;;;;;;;7.19;100.00;101377.38;4968340;28;19926;-74
2022/10/20 08:32:30;;;;;;;;;;;;;;;7.26;100.00;101386.03;4967923;28;19930;-74
2022/10/20 08:34:55;;;;;;;;;;;;;;;7.30;100.00;101402.63;4939073;28;19972;-75
2022/10/20 08:37:21;;;;;;;;;;;;;;;7.36;100.00;101401.63;4965855;28;19960;-75
2022/10/20 08:39:46;;;;;;;;;;;;;;;7.39;100.00;101389.25;4966482;28;20289;-75
2022/10/20 08:42:12;;;;;;;;;;;;;;;7.45;100.00;101382.94;4949539;28;19992;-74
2022/10/20 08:44:38;;;;;;;;;;;;;;;7.52;100.00;101373.16;4963627;28;19984;-74
2022/10/20 08:47:04;;;;;;;;;;;;;;;7.58;100.00;101358.03;4960468;28;19954;-74
2022/10/20 08:49:30;;;;;;;;;;;;;;;7.65;100.00;101347.34;4962572;28;19933;-75
2022/10/20 08:51:57;;;;;;;;;;;;;;;7.68;100.00;101345.50;4948773;28;20302;-75
2022/10/20 08:54:23;;;;;;;;;;;;;;;7.73;100.00;101354.16;4964693;28;20259;-74
2022/10/20 08:56:48;;;;;;;;;;;;;;;7.77;100.00;101352.31;4947963;28;21593;-74
2022/10/20 08:59:33;;;;;;;;;;;;;;;7.80;100.00;101340.81;4963478;28;20244;-74
2022/10/20 09:01:58;;;;;;;;;;;;;;;7.82;100.00;101341.66;4964098;28;20032;-74
2022/10/20 09:04:25;;;;;;;;;;;;;;;7.85;100.00;101349.50;4961388;28;19971;-74
2022/10/20 09:06:52;;;;;;;;;;;;;;;7.88;100.00;101352.91;4948954;28;20408;-75
2022/10/20 09:09:19;;;;;;;;;;;;;;;7.91;100.00;101341.41;4966101;28;19952;-75
2022/10/20 09:11:46;;;;;;;;;;;;;;;7.96;100.00;101342.16;4952515;28;20403;-75
2022/10/20 09:14:12;;;;;;;;;;;;;;;8.02;100.00;101341.97;4967782;28;19929;-75
2022/10/20 09:16:39;;;;;;;;;;;;;;;8.08;100.00;101340.09;4963453;28;20363;-75
2022/10/20 09:19:06;;;;;;;;;;;;;;;8.12;100.00;101325.94;4963775;28;20131;-75
2022/10/20 09:21:32;;;;;;;;;;;;;;;8.19;100.00;101316.06;4967208;28;19936;-75
2022/10/20 09:24:01;;;;;;;;;;;;;;;8.26;100.00;101313.22;4969713;28;20276;-74
2022/10/20 09:26:30;;;;;;;;;;;;;;;8.35;100.00;101313.84;4968084;28;20378;-75
2022/10/20 09:29:06;;;;;;;;;;;;;;;8.43;100.00;101320.66;4984966;28;19929;-75
2022/10/20 09:31:33;;;;;;;;;;;;;;;8.50;100.00;101302.00;4967617;28;19926;-75
2022/10/20 09:33:59;;;;;;;;;;;;;;;8.56;100.00;101313.25;4986338;28;20072;-75
2022/10/20 09:36:32;;;;;;;;;;;;;;;8.60;100.00;101295.56;4949983;28;20425;-75
2022/10/20 09:38:58;;;;;;;;;;;;;;;8.66;100.00;101294.53;4948710;28;19926;-75
2022/10/20 09:41:27;;;;;;;;;;;;;;;8.71;100.00;101289.94;4964463;28;20032;-75
2022/10/20 09:43:53;;;;;;;;;;;;;;;8.77;100.00;101286.28;4946000;28;21397;-74
2022/10/20 09:46:20;;;;;;;;;;;;;;;8.83;100.00;101284.31;4987289;28;19930;-74
2022/10/20 09:48:47;;;;;;;;;;;;;;;8.90;100.00;101292.03;4988866;28;19921;-74
2022/10/20 09:51:13;;;;;;;;;;;;;;;8.95;100.00;101276.91;4967341;28;19930;-74
2022/10/20 09:53:44;;;;;;;;;;;;;;;8.98;100.00;101281.25;4988997;28;19940;-74
2022/10/20 09:56:10;;;;;;;;;;;;;;;9.04;100.00;101278.41;4954379;28;20106;-75
2022/10/20 09:58:41;;;;;;;;;;;;;;;9.09;100.00;101276.47;4987116;28;20183;-75
2022/10/20 10:01:14;;;;;;;;;;;;;;;9.14;100.00;101265.78;4977614;28;20024;-75
2022/10/20 10:03:45;;;;;;;;;;;;;;;9.21;100.00;101267.28;4969743;28;20343;-75
2022/10/20 10:06:20;;;;;;;;;;;;;;;9.27;100.00;101269.72;4969862;28;19929;-75
2022/10/20 10:08:46;;;;;;;;;;;;;;;9.32;100.00;101251.91;4988958;28;19949;-75
2022/10/20 10:11:21;;;;;;;;;;;;;;;9.37;100.00;101254.41;4967331;28;19977;-75
2022/10/20 10:13:47;;;;;;;;;;;;;;;9.46;100.00;101243.53;4969107;28;19930;-75
2022/10/20 10:16:15;;;;;;;;;;;;;;;9.57;100.00;101250.22;4951156;28;19929;-75
2022/10/20 10:18:41;;;;;;;;;;;;;;;9.65;100.00;101248.19;4988998;28;21598;-75
2022/10/20 10:21:07;;;;;;;;;;;;;;;9.73;100.00;101234.69;4968208;28;19935;-75
2022/10/20 10:23:35;;;;;;;;;;;;;;;9.82;100.00;101234.38;4965849;28;19930;-75
2022/10/20 10:26:01;;;;;;;;;;;;;;;9.86;100.00;101230.69;4965171;28;20308;-75
2022/10/20 10:28:28;;;;;;;;;;;;;;;9.93;100.00;101236.63;4965810;28;19932;-75
2022/10/20 10:31:05;;;;;;;;;;;;;;;10.01;100.00;101242.50;4969115;28;19930;-75
2022/10/20 10:33:32;;;;;;;;;;;;;;;10.08;100.00;101239.63;4967547;28;20255;-75
2022/10/20 10:35:57;;;;;;;;;;;;;;;10.14;100.00;101234.09;4969470;28;20023;-75
2022/10/20 10:38:23;;;;;;;;;;;;;;;10.21;100.00;101229.44;4965291;28;20032;-75
2022/10/20 10:40:48;;;;;;;;;;;;;;;10.26;100.00;101230.13;4968861;28;20019;-75
2022/10/20 10:43:29;;;;;;;;;;;;;;;10.32;100.00;101233.41;4963882;28;19932;-75
2022/10/20 10:46:27;;;;;;;;;;;;;;;10.39;100.00;101233.16;4969465;28;19984;-75
2022/10/20 10:48:55;;;;;;;;;;;;;;;10.49;100.00;101233.69;4924496;28;19997;-75
2022/10/20 10:51:24;;;;;;;;;;;;;;;10.55;100.00;101222.88;4967495;28;19930;-75
2022/10/20 10:54:09;;;;;;;;;;;;;;;10.64;100.00;101221.66;4964104;28;20274;-75
2022/10/20 10:56:37;;;;;;;;;;;;;;;10.72;100.00;101211.59;4969487;28;19956;-75
2022/10/20 10:59:18;;;;;;;;;;;;;;;10.79;100.00;101221.03;4968523;28;19975;-75
2022/10/20 11:02:02;;;;;;;;;;;;;;;10.86;100.00;101216.38;4985081;28;20382;-75
2022/10/20 11:04:43;;;;;;;;;;;;;;;10.91;100.00;101214.41;4964402;28;19933;-75
2022/10/20 11:07:08;;;;;;;;;;;;;;;10.98;100.00;101209.69;4961923;28;19925;-74
2022/10/20 11:09:38;;;;;;;;;;;;;;;11.02;100.00;101215.72;4968274;28;19973;-74
2022/10/20 11:12:11;;;;;;;;;;;;;;;11.06;100.00;101207.56;4971909;28;19929;-74
2022/10/20 11:14:44;;;;;;;;;;;;;;;11.11;100.00;101204.75;4968028;28;19926;-74
2022/10/20 11:17:25;;;;;;;;;;;;;;;11.16;100.00;101199.25;4966878;28;20011;-74
2022/10/20 11:19:57;;;;;;;;;;;;;;;11.19;100.00;101181.44;4967682;28;20007;-75
2022/10/20 11:22:25;;;;;;;;;;;;;;;11.21;100.00;101184.00;4973310;28;19929;-75
2022/10/20 11:25:14;;;;;;;;;;;;;;;11.24;100.00;101178.59;4972529;28;19961;-75
2022/10/20 11:27:39;;;;;;;;;;;;;;;11.26;100.00;101180.25;4936302;28;19952;-75
2022/10/20 11:30:14;;;;;;;;;;;;;;;11.27;100.00;101162.53;4970146;28;19937;-74
2022/10/20 11:32:41;;;;;;;;;;;;;;;11.28;100.00;101154.53;4966587;28;19930;-74
2022/10/20 11:35:22;;;;;;;;;;;;;;;11.27;100.00;101181.97;4970833;28;19929;-73
2022/10/20 11:38:31;;;;;;;;;;;;;;;11.26;100.00;101180.25;4885607;28;20264;-75
2022/10/20 11:40:58;;;;;;;;;;;;;;;11.25;100.00;101159.97;4926072;28;21571;-73
2022/10/20 11:43:26;;;;;;;;;;;;;;;11.25;100.00;101175.00;4961841;28;20024;-74
2022/10/20 11:46:09;;;;;;;;;;;;;;;11.24;100.00;101170.63;4970468;28;19965;-73
2022/10/20 11:48:39;;;;;;;;;;;;;;;11.23;100.00;101161.81;4943704;28;19929;-74
2022/10/20 11:51:16;;;;;;;;;;;;;;;11.24;100.00;101174.13;4967538;28;20524;-74
2022/10/20 11:53:51;;;;;;;;;;;;;;;11.23;100.00;101168.91;4973428;28;19952;-74
2022/10/20 11:56:29;;;;;;;;;;;;;;;11.22;100.00;101159.25;4970498;28;19930;-74
2022/10/20 11:59:14;;;;;;;;;;;;;;;11.19;100.00;101147.00;4972929;28;19926;-74
2022/10/20 12:01:42;;;;;;;;;;;;;;;11.19;100.00;101154.06;4968611;28;19918;-74
2022/10/20 12:04:19;;;;;;;;;;;;;;;11.18;100.00;101149.69;4967970;28;19929;-74
2022/10/20 12:06:50;;;;;;;;;;;;;;;11.17;100.00;101154.13;4970248;28;19930;-74
2022/10/20 12:09:35;;;;;;;;;;;;;;;11.15;100.00;101148.03;4965977;28;21641;-74
2022/10/20 12:12:00;;;;;;;;;;;;;;;11.12;100.00;101148.19;4972153;28;19973;-74
2022/10/20 12:14:26;;;;;;;;;;;;;;;11.10;100.00;101139.41;4971951;28;20016;-74
2022/10/20 12:16:51;;;;;;;;;;;;;;;11.06;100.00;101127.25;4973102;28;19934;-74
2022/10/20 12:19:18;;;;;;;;;;;;;;;11.04;100.00;101118.47;4967793;28;19961;-74
2022/10/20 12:21:54;;;;;;;;;;;;;;;11.02;100.00;101128.28;4968334;28;20012;-74
2022/10/20 12:24:31;;;;;;;;;;;;;;;10.96;100.00;101119.69;4954093;28;20041;-73
2022/10/20 12:27:16;;;;;;;;;;;;;;;10.93;100.00;101116.28;4970700;28;20163;-74
2022/10/20 12:29:42;;;;;;;;;;;;;;;10.88;100.00;101110.34;4952884;28;19999;-74
2022/10/20 12:32:26;;;;;;;;;;;;;;;10.82;100.00;101100.88;4953165;28;19930;-73
2022/10/20 12:34:58;;;;;;;;;;;;;;;10.76;100.00;101120.53;4967839;28;20352;-74
2022/10/20 12:37:24;;;;;;;;;;;;;;;10.69;100.00;101106.66;4941520;28;20092;-74
2022/10/20 12:39:58;;;;;;;;;;;;;;;10.67;100.00;101099.75;4951589;28;19929;-73